createdAt,value
2018-09-26T00:01:30.592Z,82.33
2018-09-26T00:04:30.597Z,85.01
2018-09-26T00:07:30.498Z,84.84
2018-09-26T00:10:30.516Z,85.39
2018-09-26T00:13:30.445Z,87.66
2018-09-26T00:16:30.440Z,87.85
2018-09-26T00:19:30.365Z,88.10
2018-09-26T00:22:30.344Z,89.75
2018-09-26T00:25:30.320Z,89.19
2018-09-26T00:28:30.282Z,88.80
2018-09-26T00:31:30.232Z,89.36
2018-09-26T00:34:30.206Z,90.12
2018-09-26T00:37:30.181Z,91.82
2018-09-26T00:40:30.169Z,92.72
2018-09-26T00:43:30.099Z,94.84
2018-09-26T00:46:30.083Z,95.29
2018-09-26T00:49:30.054Z,96.62
2018-09-26T00:52:30.005Z,98.18
2018-09-26T00:55:30.301Z,98.49
2018-09-26T00:58:29.969Z,98.80
2018-09-26T01:01:29.932Z,98.60
2018-09-26T01:04:30.903Z,99.43
2018-09-26T01:07:29.846Z,99.99
2018-09-26T01:10:29.826Z,99.99
2018-09-26T01:13:29.763Z,99.99
2018-09-26T01:16:31.103Z,99.88
2018-09-26T01:19:29.693Z,99.99
2018-09-26T01:22:29.708Z,99.99
2018-09-26T01:25:29.632Z,99.99
2018-09-26T01:28:29.638Z,99.99
2018-09-26T01:31:29.561Z,99.99
2018-09-26T01:34:29.519Z,99.85
2018-09-26T01:37:29.523Z,98.61
2018-09-26T01:40:29.480Z,98.82
2018-09-26T01:43:29.444Z,97.78
2018-09-26T01:46:31.173Z,97.84
2018-09-26T01:49:29.352Z,96.85
2018-09-26T01:52:29.353Z,96.69
2018-09-26T01:55:29.283Z,98.86
2018-09-26T01:58:29.248Z,99.99
2018-09-26T02:01:29.236Z,99.11
2018-09-26T02:04:29.211Z,99.78
2018-09-26T02:07:29.160Z,99.99
2018-09-26T02:10:30.105Z,99.99
2018-09-26T02:13:29.110Z,99.99
2018-09-26T02:16:29.069Z,99.99
2018-09-26T02:19:29.027Z,99.99
2018-09-26T02:22:28.990Z,99.99
2018-09-26T02:25:28.956Z,99.99
2018-09-26T02:28:28.940Z,99.99
2018-09-26T02:31:28.900Z,99.99
2018-09-26T02:34:28.868Z,99.99
2018-09-26T02:37:28.820Z,99.99
2018-09-26T02:40:28.787Z,99.99
2018-09-26T02:43:28.727Z,99.99
2018-09-26T02:46:28.744Z,99.99
2018-09-26T02:49:28.663Z,99.99
2018-09-26T02:52:28.674Z,99.99
2018-09-26T02:55:28.600Z,99.99
2018-09-26T02:58:28.584Z,99.13
2018-09-26T03:01:28.521Z,99.95
2018-09-26T03:04:28.504Z,98.87
2018-09-26T03:07:28.472Z,98.61
2018-09-26T03:10:28.538Z,98.61
2018-09-26T03:13:28.410Z,98.46
2018-09-26T03:16:28.367Z,98.71
2018-09-26T03:19:28.332Z,98.30
2018-09-26T03:22:28.311Z,97.83
2018-09-26T03:25:28.267Z,98.28
2018-09-26T03:28:28.258Z,98.85
2018-09-26T03:31:28.214Z,99.99
2018-09-26T03:34:28.173Z,99.99
2018-09-26T03:37:28.109Z,99.99
2018-09-26T03:40:28.114Z,98.50
2018-09-26T03:43:28.098Z,97.06
2018-09-26T03:46:28.034Z,96.95
2018-09-26T03:49:27.978Z,97.93
2018-09-26T03:52:28.013Z,98.34
2018-09-26T03:55:27.995Z,98.33
2018-09-26T03:58:27.901Z,98.74
2018-09-26T04:01:27.862Z,99.99
2018-09-26T04:04:27.857Z,99.99
2018-09-26T04:07:27.783Z,99.99
2018-09-26T04:10:27.768Z,99.99
2018-09-26T04:13:28.616Z,99.99
2018-09-26T04:16:27.724Z,99.99
2018-09-26T04:19:27.653Z,99.99
2018-09-26T04:22:27.648Z,99.99
2018-09-26T04:25:27.571Z,99.99
2018-09-26T04:28:27.567Z,99.99
2018-09-26T04:31:27.506Z,99.99
2018-09-26T04:34:27.505Z,99.99
2018-09-26T04:37:27.481Z,99.99
2018-09-26T04:40:27.450Z,99.99
2018-09-26T04:43:27.429Z,99.99
2018-09-26T04:46:27.353Z,99.99
2018-09-26T04:49:27.298Z,99.99
2018-09-26T04:52:27.288Z,99.99
2018-09-26T04:55:27.246Z,99.99
2018-09-26T04:58:27.228Z,99.99
2018-09-26T05:01:27.174Z,99.99
2018-09-26T05:04:27.145Z,99.99
2018-09-26T05:07:27.101Z,99.99
2018-09-26T05:10:27.097Z,99.99
2018-09-26T05:13:27.040Z,99.99
2018-09-26T05:16:27.036Z,99.99
2018-09-26T05:19:26.976Z,99.99
2018-09-26T05:22:26.969Z,99.99
2018-09-26T05:25:26.889Z,99.99
2018-09-26T05:28:26.911Z,99.99
2018-09-26T05:31:26.822Z,99.99
2018-09-26T05:34:26.824Z,99.99
2018-09-26T05:37:26.775Z,99.99
2018-09-26T05:40:26.756Z,99.99
2018-09-26T05:43:26.688Z,99.99
2018-09-26T05:46:26.661Z,99.99
2018-09-26T05:49:26.637Z,99.99
2018-09-26T05:52:26.597Z,99.99
2018-09-26T05:55:26.553Z,99.99
2018-09-26T05:58:26.572Z,99.99
2018-09-26T06:01:27.142Z,99.99
2018-09-26T06:04:26.465Z,99.99
2018-09-26T06:07:26.424Z,99.99
2018-09-26T06:10:26.401Z,99.99
2018-09-26T06:13:26.356Z,99.99
2018-09-26T06:16:26.327Z,99.99
2018-09-26T06:19:26.306Z,99.99
2018-09-26T06:22:26.277Z,99.99
2018-09-26T06:25:26.217Z,99.99
2018-09-26T06:28:26.222Z,99.99
2018-09-26T06:31:26.189Z,98.53
2018-09-26T06:34:26.116Z,97.25
2018-09-26T06:37:26.101Z,95.40
2018-09-26T06:40:26.056Z,95.25
2018-09-26T06:43:26.011Z,93.35
2018-09-26T06:46:27.010Z,91.87
2018-09-26T06:49:25.957Z,92.24
2018-09-26T06:52:25.928Z,91.53
2018-09-26T06:55:25.863Z,90.16
2018-09-26T06:58:25.855Z,91.60
2018-09-26T07:01:25.806Z,88.78
2018-09-26T07:04:25.815Z,86.89
2018-09-26T07:07:25.786Z,85.17
2018-09-26T07:10:25.730Z,82.97
2018-09-26T07:13:25.661Z,78.74
2018-09-26T07:16:25.645Z,79.17
2018-09-26T07:19:25.608Z,75.45
2018-09-26T07:22:25.591Z,74.39
2018-09-26T07:25:25.581Z,73.23
2018-09-26T07:28:25.551Z,72.69
2018-09-26T07:31:25.487Z,70.10
2018-09-26T07:34:25.490Z,69.21
2018-09-26T07:37:25.388Z,65.59
2018-09-26T07:40:25.381Z,62.24
2018-09-26T07:43:25.325Z,59.11
2018-09-26T07:46:25.320Z,57.56
2018-09-26T07:49:25.248Z,56.46
2018-09-26T07:52:25.233Z,55.58
2018-09-26T07:55:25.177Z,54.84
2018-09-26T07:58:25.165Z,54.69
2018-09-26T08:01:25.112Z,57.35
2018-09-26T08:04:25.127Z,56.54
2018-09-26T08:07:25.052Z,59.66
2018-09-26T08:10:25.119Z,59.63
2018-09-26T08:13:24.977Z,56.74
2018-09-26T08:16:24.981Z,54.33
2018-09-26T08:19:24.917Z,54.58
2018-09-26T08:22:24.903Z,54.82
2018-09-26T08:25:25.135Z,57.21
2018-09-26T08:28:24.856Z,57.85
2018-09-26T08:31:24.773Z,57.70
2018-09-26T08:34:24.757Z,57.90
2018-09-26T08:37:24.716Z,57.83
2018-09-26T08:40:24.706Z,56.56
2018-09-26T08:43:24.662Z,56.13
2018-09-26T08:46:24.991Z,55.72
2018-09-26T08:49:24.580Z,53.14
2018-09-26T08:52:24.562Z,49.90
2018-09-26T08:55:24.509Z,45.87
2018-09-26T08:58:24.494Z,42.69
2018-09-26T09:01:24.450Z,43.40
2018-09-26T09:04:24.418Z,43.04
2018-09-26T09:07:24.370Z,44.40
2018-09-26T09:10:24.374Z,40.71
2018-09-26T09:13:24.325Z,42.19
2018-09-26T09:16:24.309Z,39.79
2018-09-26T09:19:24.239Z,41.36
2018-09-26T09:22:24.272Z,39.36
2018-09-26T09:25:24.187Z,39.34
2018-09-26T09:28:24.192Z,35.42
2018-09-26T09:31:24.157Z,35.19
2018-09-26T09:34:24.113Z,37.08
2018-09-26T09:37:24.053Z,37.37
2018-09-26T09:40:24.106Z,34.33
2018-09-26T09:43:24.209Z,33.83
2018-09-26T09:46:24.563Z,36.00
2018-09-26T09:49:23.994Z,36.02
2018-09-26T09:52:24.566Z,37.53
2018-09-26T09:55:23.863Z,33.39
2018-09-26T09:58:23.840Z,34.61
2018-09-26T10:01:23.792Z,32.23
2018-09-26T10:04:23.901Z,31.45
2018-09-26T10:07:23.865Z,33.06
2018-09-26T10:10:23.891Z,31.73
2018-09-26T10:13:23.777Z,32.35
2018-09-26T10:16:25.795Z,30.39
2018-09-26T10:19:38.585Z,31.10
2018-09-26T10:22:24.544Z,31.84
2018-09-26T10:25:24.064Z,30.25
2018-09-26T10:28:23.554Z,32.59
2018-09-26T10:31:23.464Z,31.94
2018-09-26T10:34:23.446Z,32.30
2018-09-26T10:37:23.428Z,33.43
2018-09-26T10:40:23.394Z,35.54
2018-09-26T10:43:23.348Z,34.20
2018-09-26T10:46:23.359Z,35.31
2018-09-26T10:49:23.266Z,33.75
2018-09-26T10:52:23.300Z,32.45
2018-09-26T10:55:23.218Z,33.09
2018-09-26T10:58:23.186Z,30.97
2018-09-26T11:01:23.181Z,32.29
2018-09-26T11:04:23.235Z,32.24
2018-09-26T11:07:23.104Z,33.62
2018-09-26T11:10:23.190Z,29.44
2018-09-26T11:13:23.025Z,29.95
2018-09-26T11:16:23.052Z,30.91
2018-09-26T11:19:22.967Z,28.47
2018-09-26T11:22:23.015Z,28.62
2018-09-26T11:25:22.904Z,29.28
2018-09-26T11:28:23.024Z,29.08
2018-09-26T11:31:22.851Z,27.62
2018-09-26T11:34:22.879Z,28.64
2018-09-26T11:37:22.897Z,27.89
2018-09-26T11:40:22.827Z,27.50
2018-09-26T11:43:22.733Z,27.50
2018-09-26T11:46:22.760Z,27.27
2018-09-26T11:49:22.633Z,27.82
2018-09-26T11:52:22.702Z,28.16
2018-09-26T11:55:22.585Z,29.25
2018-09-26T11:58:22.679Z,29.57
2018-09-26T12:01:22.514Z,28.93
2018-09-26T12:04:22.577Z,30.07
2018-09-26T12:07:22.502Z,28.29
2018-09-26T12:10:22.484Z,27.91
2018-09-26T12:13:22.415Z,28.83
2018-09-26T12:16:22.565Z,30.15
2018-09-26T12:19:22.331Z,31.84
2018-09-26T12:22:22.468Z,29.85
2018-09-26T12:25:22.259Z,32.12
2018-09-26T12:28:22.314Z,33.86
2018-09-26T12:31:22.220Z,32.26
2018-09-26T12:34:24.180Z,31.37
2018-09-26T12:37:22.139Z,28.97
2018-09-26T12:40:22.157Z,29.47
2018-09-26T12:43:22.044Z,30.08
2018-09-26T12:46:22.126Z,30.46
2018-09-26T12:49:21.983Z,30.07
2018-09-26T12:52:22.025Z,30.56
2018-09-26T12:55:21.914Z,29.14
2018-09-26T12:58:21.971Z,30.25
2018-09-26T13:01:21.841Z,30.48
2018-09-26T13:04:21.961Z,31.82
2018-09-26T13:07:21.791Z,30.41
2018-09-26T13:10:23.668Z,32.12
2018-09-26T13:13:21.718Z,29.78
2018-09-26T13:16:21.806Z,30.27
2018-09-26T13:19:22.625Z,30.25
2018-09-26T13:22:22.721Z,29.11
2018-09-26T13:25:21.648Z,30.68
2018-09-26T13:28:21.590Z,29.98
2018-09-26T13:31:21.525Z,30.33
2018-09-26T13:34:21.592Z,29.67
2018-09-26T13:37:21.470Z,31.12
2018-09-26T13:40:21.481Z,30.12
2018-09-26T13:43:21.410Z,30.59
2018-09-26T13:46:21.559Z,30.28
2018-09-26T13:49:21.368Z,29.27
2018-09-26T13:52:21.399Z,28.77
2018-09-26T13:55:21.610Z,29.91
2018-09-26T13:58:21.346Z,30.68
2018-09-26T14:01:21.222Z,30.10
2018-09-26T14:04:21.265Z,30.56
2018-09-26T14:07:21.126Z,29.88
2018-09-26T14:10:21.115Z,30.79
2018-09-26T14:13:21.053Z,31.07
2018-09-26T14:16:21.041Z,29.30
2018-09-26T14:19:21.036Z,31.70
2018-09-26T14:22:21.003Z,31.09
2018-09-26T14:25:20.935Z,31.29
2018-09-26T14:28:20.925Z,30.46
2018-09-26T14:31:20.850Z,31.32
2018-09-26T14:34:20.856Z,31.82
2018-09-26T14:37:20.812Z,31.99
2018-09-26T14:40:20.783Z,30.10
2018-09-26T14:43:20.733Z,32.09
2018-09-26T14:46:20.691Z,31.09
2018-09-26T14:49:20.676Z,30.42
2018-09-26T14:52:20.653Z,29.54
2018-09-26T14:55:20.647Z,30.33
2018-09-26T14:58:20.658Z,30.22
2018-09-26T15:01:20.533Z,31.84
2018-09-26T15:04:20.592Z,30.93
2018-09-26T15:07:20.457Z,32.14
2018-09-26T15:10:20.540Z,31.46
2018-09-26T15:13:20.404Z,31.85
2018-09-26T15:16:20.389Z,31.54
2018-09-26T15:19:20.320Z,31.70
2018-09-26T15:22:20.392Z,31.30
2018-09-26T15:25:20.295Z,32.02
2018-09-26T15:28:21.216Z,32.52
2018-09-26T15:31:20.212Z,31.34
2018-09-26T15:34:20.209Z,31.24
2018-09-26T15:37:20.097Z,32.92
2018-09-26T15:40:20.225Z,33.73
2018-09-26T15:43:20.038Z,33.13
2018-09-26T15:46:20.046Z,34.66
2018-09-26T15:49:19.969Z,32.55
2018-09-26T15:52:19.969Z,33.84
2018-09-26T15:55:19.958Z,35.66
2018-09-26T15:58:19.950Z,34.08
2018-09-26T16:01:19.853Z,33.84
2018-09-26T16:04:19.833Z,34.64
2018-09-26T16:07:19.769Z,33.45
2018-09-26T16:10:19.779Z,33.54
2018-09-26T16:13:19.703Z,34.33
2018-09-26T16:16:19.749Z,34.86
2018-09-26T16:19:19.711Z,35.69
2018-09-26T16:22:19.637Z,35.30
2018-09-26T16:25:19.917Z,36.69
2018-09-26T16:28:19.626Z,37.29
2018-09-26T16:31:19.483Z,38.13
2018-09-26T16:34:19.530Z,37.05
2018-09-26T16:37:19.447Z,37.25
2018-09-26T16:40:19.455Z,40.31
2018-09-26T16:43:19.347Z,43.42
2018-09-26T16:46:19.409Z,44.29
2018-09-26T16:49:19.283Z,43.62
2018-09-26T16:52:19.270Z,45.86
2018-09-26T16:55:19.226Z,46.26
2018-09-26T16:58:19.229Z,47.72
2018-09-26T17:01:19.137Z,49.13
2018-09-26T17:04:19.228Z,50.09
2018-09-26T17:07:19.104Z,50.42
2018-09-26T17:10:19.145Z,51.23
2018-09-26T17:13:19.007Z,52.16
2018-09-26T17:16:19.697Z,52.19
2018-09-26T17:19:19.014Z,53.72
2018-09-26T17:22:18.951Z,51.73
2018-09-26T17:25:19.676Z,54.66
2018-09-26T17:28:18.933Z,54.26
2018-09-26T17:31:18.841Z,55.83
2018-09-26T17:34:18.862Z,59.97
2018-09-26T17:37:18.779Z,60.13
2018-09-26T17:40:19.174Z,63.54
2018-09-26T17:43:19.729Z,64.96
2018-09-26T17:46:18.644Z,64.76
2018-09-26T17:49:18.650Z,68.14
2018-09-26T17:52:18.626Z,70.31
2018-09-26T17:55:18.537Z,70.55
2018-09-26T17:58:18.593Z,71.39
2018-09-26T18:01:18.501Z,73.81
2018-09-26T18:04:18.476Z,74.49
2018-09-26T18:07:18.393Z,75.34
2018-09-26T18:10:18.372Z,74.52
2018-09-26T18:13:18.318Z,74.76
2018-09-26T18:16:20.099Z,73.84
2018-09-26T18:19:18.250Z,76.43
2018-09-26T18:22:18.225Z,76.32
2018-09-26T18:25:18.177Z,73.88
2018-09-26T18:28:18.172Z,70.48
2018-09-26T18:31:18.189Z,71.46
2018-09-26T18:34:18.112Z,71.33
2018-09-26T18:37:18.036Z,70.61
2018-09-26T18:40:18.035Z,70.65
2018-09-26T18:43:17.976Z,72.92
2018-09-26T18:46:17.944Z,74.79
2018-09-26T18:49:17.910Z,73.06
2018-09-26T18:52:17.938Z,71.19
2018-09-26T18:55:17.840Z,72.00
2018-09-26T18:58:17.826Z,70.98
2018-09-26T19:01:17.812Z,73.33
2018-09-26T19:04:17.769Z,73.23
2018-09-26T19:07:17.721Z,73.13
2018-09-26T19:10:19.591Z,75.61
2018-09-26T19:13:19.613Z,76.64
2018-09-26T19:16:17.636Z,74.97
2018-09-26T19:19:17.556Z,72.89
2018-09-26T19:22:17.601Z,71.97
2018-09-26T19:25:17.497Z,71.77
2018-09-26T19:28:17.471Z,72.07
2018-09-26T19:31:17.517Z,72.41
2018-09-26T19:34:17.405Z,73.27
2018-09-26T19:37:17.361Z,76.81
2018-09-26T19:40:17.338Z,76.34
2018-09-26T19:43:17.293Z,79.03
2018-09-26T19:46:17.294Z,80.05
2018-09-26T19:49:17.250Z,82.41
2018-09-26T19:52:17.392Z,81.18
2018-09-26T19:55:17.170Z,80.02
2018-09-26T19:58:17.175Z,78.86
2018-09-26T20:01:17.078Z,77.22
2018-09-26T20:04:17.081Z,76.26
2018-09-26T20:07:17.019Z,75.00
2018-09-26T20:10:17.098Z,76.06
2018-09-26T20:13:16.974Z,76.06
2018-09-26T20:16:16.924Z,76.57
2018-09-26T20:19:16.883Z,75.45
2018-09-26T20:22:16.853Z,75.24
2018-09-26T20:25:16.810Z,75.24
2018-09-26T20:28:16.795Z,75.62
2018-09-26T20:31:16.755Z,75.34
2018-09-26T20:34:16.729Z,74.69
2018-09-26T20:37:16.689Z,74.84
2018-09-26T20:40:16.662Z,77.63
2018-09-26T20:43:16.624Z,77.39
2018-09-26T20:46:16.820Z,79.58
2018-09-26T20:49:16.547Z,82.39
2018-09-26T20:52:16.544Z,85.13
2018-09-26T20:55:16.501Z,86.40
2018-09-26T20:58:16.533Z,86.05
2018-09-26T21:01:16.429Z,84.88
2018-09-26T21:04:16.631Z,86.36
2018-09-26T21:07:16.352Z,86.77
2018-09-26T21:10:16.321Z,86.98
2018-09-26T21:13:16.262Z,87.53
2018-09-26T21:16:16.378Z,87.53
2018-09-26T21:19:16.188Z,88.18
2018-09-26T21:22:16.170Z,88.59
2018-09-26T21:25:16.142Z,87.59
2018-09-26T21:28:16.111Z,87.18
2018-09-26T21:31:16.119Z,86.71
2018-09-26T21:34:16.041Z,86.30
2018-09-26T21:37:15.994Z,86.87
2018-09-26T21:40:15.969Z,87.16
2018-09-26T21:43:15.936Z,89.31
2018-09-26T21:46:15.922Z,89.25
2018-09-26T21:49:15.865Z,91.31
2018-09-26T21:52:15.833Z,90.94
2018-09-26T21:55:15.804Z,90.59
2018-09-26T21:58:15.767Z,88.59
2018-09-26T22:01:15.712Z,87.77
2018-09-26T22:04:15.711Z,89.21
2018-09-26T22:07:15.641Z,89.01
2018-09-26T22:10:15.652Z,89.25
2018-09-26T22:13:15.575Z,89.66
2018-09-26T22:16:15.594Z,90.53
2018-09-26T22:19:15.514Z,91.29
2018-09-26T22:22:15.508Z,93.08
2018-09-26T22:25:15.450Z,92.87
2018-09-26T22:28:15.441Z,92.93
2018-09-26T22:31:15.431Z,92.67
2018-09-26T22:34:15.353Z,94.26
2018-09-26T22:37:15.319Z,94.93
2018-09-26T22:40:15.306Z,95.34
2018-09-26T22:43:15.231Z,94.17
2018-09-26T22:46:15.233Z,91.00
2018-09-26T22:49:15.160Z,88.80
2018-09-26T22:52:15.193Z,88.53
2018-09-26T22:55:15.120Z,88.29
2018-09-26T22:58:15.194Z,87.77
2018-09-26T23:01:15.029Z,86.95
2018-09-26T23:04:15.025Z,87.57
2018-09-26T23:07:14.966Z,86.60
2018-09-26T23:10:14.935Z,86.40
2018-09-26T23:13:14.913Z,85.27
2018-09-26T23:16:14.872Z,85.38
2018-09-26T23:19:14.834Z,86.95
2018-09-26T23:22:14.804Z,88.02
2018-09-26T23:25:14.759Z,88.74
2018-09-26T23:28:14.729Z,87.82
2018-09-26T23:31:14.680Z,87.26
2018-09-26T23:34:14.711Z,87.26
2018-09-26T23:37:14.622Z,87.37
2018-09-26T23:40:14.614Z,85.82
2018-09-26T23:43:16.552Z,85.38
2018-09-26T23:46:14.528Z,85.52
2018-09-26T23:49:14.491Z,85.21
2018-09-26T23:52:14.518Z,84.66
2018-09-26T23:55:14.415Z,84.66
2018-09-26T23:58:14.403Z,84.66
